createdAt,value
2023-03-30T00:02:09.027Z,15.00
2023-03-30T00:04:37.709Z,15.00
2023-03-30T00:07:06.561Z,15.10
2023-03-30T00:09:42.422Z,15.20
2023-03-30T00:12:10.997Z,15.00
2023-03-30T00:14:42.577Z,14.80
2023-03-30T00:17:12.750Z,14.70
2023-03-30T00:19:42.422Z,14.80
2023-03-30T00:22:11.576Z,14.90
2023-03-30T00:24:39.567Z,15.00
2023-03-30T00:27:07.624Z,14.90
2023-03-30T00:29:37.048Z,15.00
2023-03-30T00:32:09.345Z,15.00
2023-03-30T00:34:37.414Z,14.90
2023-03-30T00:37:05.593Z,14.80
2023-03-30T00:39:33.854Z,14.50
2023-03-30T00:42:01.974Z,14.50
2023-03-30T00:45:17.462Z,14.50
2023-03-30T00:47:51.510Z,14.40
2023-03-30T00:50:22.713Z,14.40
2023-03-30T00:52:53.545Z,14.40
2023-03-30T00:55:23.892Z,14.30
2023-03-30T00:57:52.679Z,14.50
2023-03-30T01:00:22.675Z,14.60
2023-03-30T01:02:58.894Z,14.60
2023-03-30T01:05:28.443Z,14.70
2023-03-30T01:08:01.300Z,14.60
2023-03-30T01:10:29.368Z,14.80
2023-03-30T01:12:57.441Z,14.70
2023-03-30T01:15:35.894Z,14.80
2023-03-30T01:18:19.788Z,14.80
2023-03-30T01:21:13.903Z,14.80
2023-03-30T01:24:12.180Z,14.70
2023-03-30T01:26:47.520Z,14.70
2023-03-30T01:29:39.290Z,14.70
2023-03-30T01:32:46.347Z,14.70
2023-03-30T01:35:53.886Z,14.70
2023-03-30T01:38:58.036Z,14.80
2023-03-30T01:41:34.055Z,14.80
2023-03-30T01:44:05.820Z,14.80
2023-03-30T01:46:40.281Z,14.70
2023-03-30T01:49:15.449Z,14.60
2023-03-30T01:51:48.515Z,14.70
2023-03-30T01:54:20.444Z,14.60
2023-03-30T01:56:53.762Z,14.50
2023-03-30T01:59:27.218Z,14.50
2023-03-30T02:02:00.575Z,14.50
2023-03-30T02:04:30.781Z,14.50
2023-03-30T02:07:06.436Z,14.50
2023-03-30T02:09:42.037Z,14.60
2023-03-30T02:12:15.865Z,14.80
2023-03-30T02:14:49.455Z,14.70
2023-03-30T02:17:21.285Z,14.80
2023-03-30T02:19:49.795Z,14.90
2023-03-30T02:22:19.806Z,14.90
2023-03-30T02:24:52.456Z,15.00
2023-03-30T02:27:20.866Z,14.90
2023-03-30T02:29:49.052Z,14.90
2023-03-30T02:32:20.974Z,14.90
2023-03-30T02:35:09.115Z,14.90
2023-03-30T02:38:09.911Z,14.90
2023-03-30T02:40:49.083Z,14.80
2023-03-30T02:43:27.668Z,14.90
2023-03-30T02:46:08.966Z,14.80
2023-03-30T02:48:43.256Z,14.90
2023-03-30T02:51:26.641Z,14.90
2023-03-30T02:54:01.328Z,14.80
2023-03-30T02:56:39.778Z,14.80
2023-03-30T02:59:13.131Z,14.90
2023-03-30T03:01:48.029Z,14.70
2023-03-30T03:04:16.892Z,14.90
2023-03-30T03:06:45.037Z,14.90
2023-03-30T03:09:13.119Z,14.80
2023-03-30T03:11:42.664Z,14.80
2023-03-30T03:14:12.240Z,14.90
2023-03-30T03:16:41.022Z,15.10
2023-03-30T03:19:10.746Z,15.00
2023-03-30T03:21:41.155Z,14.90
2023-03-30T03:24:09.776Z,15.00
2023-03-30T03:26:38.187Z,15.10
2023-03-30T03:29:10.060Z,15.20
2023-03-30T03:31:38.320Z,15.10
2023-03-30T03:34:06.974Z,15.10
2023-03-30T03:36:35.133Z,15.10
2023-03-30T03:39:03.108Z,15.20
2023-03-30T03:41:31.413Z,15.20
2023-03-30T03:44:01.954Z,15.20
2023-03-30T03:46:31.960Z,15.20
2023-03-30T03:48:59.942Z,15.20
2023-03-30T03:51:29.344Z,15.30
2023-03-30T03:53:57.553Z,15.30
2023-03-30T03:56:27.028Z,15.20
2023-03-30T03:58:57.436Z,15.40
2023-03-30T04:01:25.605Z,15.40
2023-03-30T04:03:54.800Z,15.50
2023-03-30T04:06:25.397Z,15.50
2023-03-30T04:08:53.374Z,15.40
2023-03-30T04:11:21.445Z,15.60
2023-03-30T04:13:49.911Z,15.70
2023-03-30T04:16:19.420Z,15.70
2023-03-30T04:18:49.094Z,15.80
2023-03-30T04:21:21.430Z,15.90
2023-03-30T04:23:50.394Z,15.80
2023-03-30T04:26:18.979Z,15.80
2023-03-30T04:28:47.180Z,15.90
2023-03-30T04:31:15.139Z,15.90
2023-03-30T04:33:52.071Z,16.00
2023-03-30T04:36:22.337Z,16.00
2023-03-30T04:38:58.855Z,16.00
2023-03-30T04:41:33.298Z,16.20
2023-03-30T04:44:03.253Z,16.20
2023-03-30T04:46:32.643Z,16.30
2023-03-30T04:49:01.003Z,16.20
2023-03-30T04:51:30.904Z,16.30
2023-03-30T04:53:59.126Z,16.30
2023-03-30T04:56:27.998Z,16.30
2023-03-30T04:59:02.252Z,16.30
2023-03-30T05:01:30.126Z,16.30
2023-03-30T05:04:01.962Z,16.10
2023-03-30T05:06:31.823Z,16.10
2023-03-30T05:09:04.436Z,16.10
2023-03-30T05:11:34.314Z,16.20
2023-03-30T05:14:02.785Z,16.10
2023-03-30T05:16:32.571Z,16.10
2023-03-30T05:19:06.362Z,15.80
2023-03-30T05:21:37.850Z,15.90
2023-03-30T05:24:11.458Z,16.00
2023-03-30T05:26:46.441Z,15.60
2023-03-30T05:29:18.432Z,15.80
2023-03-30T05:31:57.784Z,15.90
2023-03-30T05:34:30.079Z,15.90
2023-03-30T05:37:03.764Z,15.70
2023-03-30T05:39:37.966Z,15.70
2023-03-30T05:42:15.986Z,15.90
2023-03-30T05:44:47.424Z,15.90
2023-03-30T05:47:26.827Z,15.90
2023-03-30T05:49:58.001Z,15.90
2023-03-30T05:52:31.795Z,16.10
2023-03-30T05:55:08.089Z,16.30
2023-03-30T05:57:42.771Z,16.30
2023-03-30T06:00:39.344Z,15.90
2023-03-30T06:03:10.673Z,16.20
2023-03-30T06:05:44.572Z,16.20
2023-03-30T06:08:27.813Z,16.40
2023-03-30T06:11:00.362Z,16.30
2023-03-30T06:13:31.536Z,16.30
2023-03-30T06:16:03.840Z,16.30
2023-03-30T06:18:37.996Z,16.40
2023-03-30T06:21:47.468Z,16.30
2023-03-30T06:24:27.761Z,16.50
2023-03-30T06:26:56.007Z,16.70
2023-03-30T06:29:24.094Z,16.60
2023-03-30T06:31:52.430Z,16.90
2023-03-30T06:34:25.350Z,17.00
2023-03-30T06:36:59.478Z,17.10
2023-03-30T06:39:32.559Z,17.30
2023-03-30T06:42:12.126Z,17.60
2023-03-30T06:44:50.462Z,17.60
2023-03-30T06:47:33.993Z,17.80
2023-03-30T06:50:06.033Z,17.70
2023-03-30T06:52:36.428Z,17.80
2023-03-30T06:55:18.067Z,17.90
2023-03-30T06:58:11.364Z,18.00
2023-03-30T07:00:42.892Z,18.10
2023-03-30T07:03:30.109Z,18.10
2023-03-30T07:06:13.182Z,18.10
2023-03-30T07:09:16.685Z,17.80
2023-03-30T07:11:53.888Z,17.80
2023-03-30T07:14:48.414Z,17.80
2023-03-30T07:17:35.759Z,17.70
2023-03-30T07:20:15.705Z,17.80
2023-03-30T07:23:01.366Z,17.60
2023-03-30T07:25:43.083Z,18.10
2023-03-30T07:28:43.281Z,18.20
2023-03-30T07:31:22.555Z,18.30
2023-03-30T07:34:20.098Z,18.50
2023-03-30T07:37:21.602Z,18.50
2023-03-30T07:39:57.576Z,18.40
2023-03-30T07:42:42.584Z,18.00
2023-03-30T07:45:27.791Z,17.90
2023-03-30T07:51:09.118Z,17.50
2023-03-30T07:53:50.237Z,18.10
2023-03-30T07:56:43.175Z,18.20
2023-03-30T07:59:28.747Z,18.40
2023-03-30T08:02:14.725Z,18.20
2023-03-30T08:04:48.871Z,18.50
2023-03-30T08:07:18.220Z,18.70
2023-03-30T08:10:11.344Z,18.60
2023-03-30T08:12:53.553Z,18.40
2023-03-30T08:15:36.643Z,18.50
2023-03-30T08:18:21.573Z,18.30
2023-03-30T08:20:57.546Z,18.40
2023-03-30T08:23:33.659Z,18.50
2023-03-30T08:26:06.708Z,18.80
2023-03-30T08:28:45.367Z,18.70
2023-03-30T08:31:38.716Z,18.80
2023-03-30T08:34:21.152Z,18.90
2023-03-30T08:36:49.994Z,18.50
2023-03-30T08:39:26.953Z,18.70
2023-03-30T08:42:31.220Z,19.20
2023-03-30T08:45:11.268Z,19.20
2023-03-30T08:47:51.003Z,19.50
2023-03-30T08:50:33.309Z,19.50
2023-03-30T08:53:09.222Z,19.20
2023-03-30T08:55:51.096Z,19.20
2023-03-30T08:58:47.531Z,19.20
2023-03-30T09:01:30.807Z,19.50
2023-03-30T09:04:34.340Z,19.10
2023-03-30T09:07:30.065Z,19.10
2023-03-30T09:09:59.138Z,19.20
2023-03-30T09:12:40.334Z,19.40
2023-03-30T09:15:18.567Z,19.40
2023-03-30T09:18:02.294Z,19.30
2023-03-30T09:20:45.558Z,19.50
2023-03-30T09:23:35.393Z,19.60
2023-03-30T09:26:19.254Z,19.60
2023-03-30T09:29:20.447Z,19.80
2023-03-30T09:32:00.237Z,19.80
2023-03-30T09:34:41.908Z,19.80
2023-03-30T09:37:25.780Z,19.70
2023-03-30T09:40:02.742Z,19.80
2023-03-30T09:42:48.114Z,20.00
2023-03-30T09:45:28.269Z,20.10
2023-03-30T09:47:56.894Z,20.10
2023-03-30T09:50:47.247Z,20.00
2023-03-30T09:53:29.545Z,19.70
2023-03-30T09:56:20.816Z,19.90
2023-03-30T09:58:52.152Z,19.40
2023-03-30T10:01:22.047Z,19.20
2023-03-30T10:04:07.632Z,18.80
2023-03-30T10:06:39.129Z,19.00
2023-03-30T10:09:12.044Z,19.20
2023-03-30T10:11:43.249Z,19.10
2023-03-30T10:14:33.945Z,19.10
2023-03-30T10:17:03.258Z,19.30
2023-03-30T10:19:43.523Z,19.40
2023-03-30T10:22:23.300Z,19.40
2023-03-30T10:25:03.958Z,19.60
2023-03-30T10:27:41.713Z,19.50
2023-03-30T10:30:12.592Z,19.60
2023-03-30T10:32:47.439Z,19.70
2023-03-30T10:35:25.647Z,19.70
2023-03-30T10:37:56.291Z,19.60
2023-03-30T10:40:32.706Z,19.70
2023-03-30T10:43:15.916Z,19.30
2023-03-30T10:45:55.347Z,19.40
2023-03-30T10:48:37.780Z,19.50
2023-03-30T10:51:20.884Z,19.50
2023-03-30T10:54:09.447Z,18.90
2023-03-30T10:56:42.345Z,18.50
2023-03-30T10:59:32.774Z,17.80
2023-03-30T11:02:22.522Z,17.20
2023-03-30T11:05:00.673Z,17.10
2023-03-30T11:07:45.306Z,16.70
2023-03-30T11:10:22.111Z,17.00
2023-03-30T11:13:03.599Z,16.60
2023-03-30T11:15:59.974Z,16.50
2023-03-30T11:18:43.266Z,16.50
2023-03-30T11:21:24.696Z,16.40
2023-03-30T11:24:07.829Z,16.30
2023-03-30T11:26:50.792Z,16.50
2023-03-30T11:29:35.524Z,16.80
2023-03-30T11:32:27.535Z,16.80
2023-03-30T11:35:12.400Z,16.70
2023-03-30T11:37:55.721Z,17.00
2023-03-30T11:40:37.062Z,17.10
2023-03-30T11:43:17.724Z,17.40
2023-03-30T11:45:55.960Z,17.60
2023-03-30T11:48:48.138Z,18.00
2023-03-30T11:51:28.282Z,18.00
2023-03-30T11:54:02.024Z,18.20
2023-03-30T11:56:54.377Z,18.40
2023-03-30T11:59:37.604Z,18.30
2023-03-30T12:02:27.142Z,18.30
2023-03-30T12:05:04.261Z,18.50
2023-03-30T12:07:46.063Z,18.70
2023-03-30T12:10:28.564Z,18.70
2023-03-30T12:13:05.789Z,18.80
2023-03-30T12:16:05.069Z,19.20
2023-03-30T12:19:04.017Z,18.90
2023-03-30T12:21:49.052Z,19.00
2023-03-30T12:24:49.405Z,18.90
2023-03-30T12:27:28.005Z,19.40
2023-03-30T12:30:12.641Z,19.60
2023-03-30T12:33:10.664Z,19.30
2023-03-30T12:36:00.333Z,19.50
2023-03-30T12:42:14.724Z,19.30
2023-03-30T12:45:58.889Z,19.30
2023-03-30T12:49:03.048Z,19.50
2023-03-30T12:52:24.827Z,19.20
2023-03-30T12:58:17.052Z,19.00
2023-03-30T13:01:22.050Z,19.20
2023-03-30T13:03:52.627Z,19.00
2023-03-30T13:06:26.807Z,19.00
2023-03-30T13:09:04.966Z,19.10
2023-03-30T13:11:45.897Z,19.00
2023-03-30T13:14:28.170Z,19.10
2023-03-30T13:17:14.964Z,18.40
2023-03-30T13:19:51.915Z,18.20
2023-03-30T13:22:29.831Z,18.90
2023-03-30T13:25:02.102Z,18.50
2023-03-30T13:27:33.831Z,19.00
2023-03-30T13:30:07.651Z,19.10
2023-03-30T13:32:55.965Z,18.90
2023-03-30T13:35:47.461Z,18.90
2023-03-30T13:38:31.307Z,19.00
2023-03-30T13:41:08.832Z,19.40
2023-03-30T13:43:52.217Z,19.50
2023-03-30T13:46:28.492Z,19.60
2023-03-30T13:49:12.107Z,19.60
2023-03-30T13:51:42.386Z,19.70
2023-03-30T13:54:15.701Z,19.90
2023-03-30T13:56:49.458Z,19.80
2023-03-30T13:59:20.649Z,19.30
2023-03-30T14:01:53.820Z,19.40
2023-03-30T14:04:22.090Z,19.30
2023-03-30T14:06:52.349Z,19.10
2023-03-30T14:09:22.662Z,19.30
2023-03-30T14:11:52.069Z,19.30
2023-03-30T14:14:24.935Z,19.30
2023-03-30T14:16:54.242Z,19.40
2023-03-30T14:19:26.164Z,19.40
2023-03-30T14:21:57.259Z,19.40
2023-03-30T14:24:29.988Z,19.60
2023-03-30T14:27:03.248Z,19.70
2023-03-30T14:29:32.407Z,19.70
2023-03-30T14:32:08.888Z,19.70
2023-03-30T14:34:37.781Z,19.60
2023-03-30T14:37:08.171Z,19.50
2023-03-30T14:39:42.379Z,19.40
2023-03-30T14:42:16.949Z,19.40
2023-03-30T14:44:45.869Z,19.60
2023-03-30T14:47:15.772Z,19.80
2023-03-30T14:49:45.023Z,19.70
2023-03-30T14:52:17.990Z,19.60
2023-03-30T14:54:54.502Z,20.00
2023-03-30T14:57:37.687Z,19.80
2023-03-30T15:00:20.938Z,19.60
2023-03-30T15:02:53.204Z,19.70
2023-03-30T15:05:23.615Z,19.20
2023-03-30T15:07:53.001Z,19.10
2023-03-30T15:10:33.828Z,19.30
2023-03-30T15:13:03.815Z,19.60
2023-03-30T15:15:33.548Z,19.50
2023-03-30T15:18:05.002Z,19.60
2023-03-30T15:20:33.354Z,19.80
2023-03-30T15:23:01.717Z,19.70
2023-03-30T15:25:32.558Z,19.80
2023-03-30T15:28:03.564Z,19.60
2023-03-30T15:30:34.834Z,19.40
2023-03-30T15:33:04.231Z,19.20
2023-03-30T15:35:34.453Z,18.90
2023-03-30T15:38:04.125Z,18.80
2023-03-30T15:40:36.280Z,18.70
2023-03-30T15:43:19.083Z,18.60
2023-03-30T15:45:50.097Z,18.50
2023-03-30T15:48:22.655Z,18.10
2023-03-30T15:50:55.093Z,18.00
2023-03-30T15:53:33.279Z,18.00
2023-03-30T15:56:01.601Z,17.70
2023-03-30T15:58:29.672Z,17.60
2023-03-30T16:00:58.126Z,17.20
2023-03-30T16:03:40.486Z,17.20
2023-03-30T16:06:13.107Z,16.90
2023-03-30T16:08:43.530Z,17.00
2023-03-30T16:11:11.722Z,17.30
2023-03-30T16:13:43.462Z,17.10
2023-03-30T16:16:13.944Z,17.30
2023-03-30T16:18:43.138Z,17.30
2023-03-30T16:21:12.478Z,17.30
2023-03-30T16:23:40.661Z,17.20
2023-03-30T16:26:09.701Z,17.00
2023-03-30T16:28:37.533Z,17.30
2023-03-30T16:31:12.446Z,17.30
2023-03-30T16:33:40.446Z,17.20
2023-03-30T16:36:14.857Z,17.30
2023-03-30T16:38:42.630Z,17.30
2023-03-30T16:41:13.445Z,17.40
2023-03-30T16:43:41.157Z,17.50
2023-03-30T16:46:11.953Z,17.60
2023-03-30T16:48:39.703Z,17.10
2023-03-30T16:51:10.643Z,17.10
2023-03-30T16:53:38.507Z,17.10
2023-03-30T16:56:07.520Z,17.10
2023-03-30T16:58:35.205Z,17.20
2023-03-30T17:01:04.377Z,17.10
2023-03-30T17:03:32.627Z,17.00
2023-03-30T17:06:00.332Z,17.00
2023-03-30T17:08:30.057Z,16.60
2023-03-30T17:11:00.872Z,16.70
2023-03-30T17:13:29.104Z,16.90
2023-03-30T17:15:58.242Z,17.00
2023-03-30T17:18:26.807Z,17.00
2023-03-30T17:20:55.527Z,16.80
2023-03-30T17:23:25.047Z,16.80
2023-03-30T17:25:55.273Z,16.70
2023-03-30T17:28:24.808Z,16.80
2023-03-30T17:30:53.955Z,16.90
2023-03-30T17:33:22.151Z,16.80
2023-03-30T17:35:52.615Z,16.70
2023-03-30T17:38:21.810Z,16.70
2023-03-30T17:40:50.929Z,16.60
2023-03-30T17:43:20.035Z,16.40
2023-03-30T17:45:47.858Z,16.60
2023-03-30T17:48:17.560Z,16.40
2023-03-30T17:50:47.236Z,16.40
2023-03-30T17:53:16.753Z,16.20
2023-03-30T17:55:45.834Z,16.20
2023-03-30T17:58:18.622Z,16.20
2023-03-30T18:00:49.050Z,16.20
2023-03-30T18:03:18.615Z,16.30
2023-03-30T18:05:48.639Z,16.50
2023-03-30T18:08:18.771Z,16.50
2023-03-30T18:10:48.976Z,16.40
2023-03-30T18:13:17.218Z,16.50
2023-03-30T18:15:49.535Z,16.50
2023-03-30T18:18:22.582Z,16.10
2023-03-30T18:20:51.869Z,16.40
2023-03-30T18:23:19.943Z,16.50
2023-03-30T18:25:47.791Z,16.40
2023-03-30T18:28:18.400Z,16.50
2023-03-30T18:30:47.606Z,16.30
2023-03-30T18:33:17.197Z,16.10
2023-03-30T18:35:46.472Z,16.40
2023-03-30T18:38:16.184Z,16.30
2023-03-30T18:40:45.655Z,16.60
2023-03-30T18:43:15.005Z,16.70
2023-03-30T18:45:45.408Z,16.50
2023-03-30T18:48:16.685Z,16.60
2023-03-30T18:50:46.084Z,16.60
2023-03-30T18:53:16.256Z,16.50
2023-03-30T18:55:45.956Z,16.20
2023-03-30T18:58:15.599Z,16.20
2023-03-30T19:00:43.727Z,15.70
2023-03-30T19:03:13.194Z,15.90
2023-03-30T19:05:43.323Z,15.90
2023-03-30T19:08:12.734Z,15.90
2023-03-30T19:10:42.475Z,16.10
2023-03-30T19:13:13.612Z,16.10
2023-03-30T19:15:41.840Z,15.70
2023-03-30T19:18:09.954Z,16.00
2023-03-30T19:20:40.993Z,15.90
2023-03-30T19:23:12.377Z,15.90
2023-03-30T19:25:40.838Z,15.90
2023-03-30T19:28:10.004Z,15.80
2023-03-30T19:30:39.540Z,15.60
2023-03-30T19:33:11.822Z,15.70
2023-03-30T19:35:40.640Z,15.60
2023-03-30T19:38:10.147Z,15.50
2023-03-30T19:40:38.330Z,15.60
2023-03-30T19:43:06.966Z,15.70
2023-03-30T19:45:34.914Z,15.80
2023-03-30T19:48:02.680Z,16.00
2023-03-30T19:50:30.732Z,15.80
2023-03-30T19:52:58.954Z,15.90
2023-03-30T19:55:28.638Z,15.90
2023-03-30T19:57:56.482Z,15.90
2023-03-30T20:00:24.609Z,15.80
2023-03-30T20:02:54.286Z,15.70
2023-03-30T20:05:23.986Z,15.80
2023-03-30T20:07:52.305Z,16.00
2023-03-30T20:10:22.239Z,15.80
2023-03-30T20:12:52.638Z,15.80
2023-03-30T20:15:22.538Z,15.90
2023-03-30T20:17:56.152Z,15.90
2023-03-30T20:20:25.384Z,15.70
2023-03-30T20:22:56.353Z,15.60
2023-03-30T20:25:24.971Z,15.70
2023-03-30T20:27:54.650Z,15.60
2023-03-30T20:30:22.906Z,15.70
2023-03-30T20:33:04.349Z,15.70
2023-03-30T20:35:36.263Z,15.70
2023-03-30T20:38:04.640Z,15.70
2023-03-30T20:40:32.794Z,15.50
2023-03-30T20:43:03.269Z,15.60
2023-03-30T20:45:32.014Z,15.50
2023-03-30T20:48:06.049Z,15.50
2023-03-30T20:50:34.582Z,15.70
2023-03-30T20:53:02.638Z,15.70
2023-03-30T20:55:30.306Z,15.40
2023-03-30T20:57:57.972Z,15.40
2023-03-30T21:00:27.422Z,15.50
2023-03-30T21:02:55.332Z,15.70
2023-03-30T21:05:23.160Z,15.80
2023-03-30T21:07:54.055Z,15.60
2023-03-30T21:10:22.204Z,15.70
2023-03-30T21:12:49.915Z,15.70
2023-03-30T21:15:19.001Z,15.70
2023-03-30T21:17:48.124Z,15.80
2023-03-30T21:20:15.985Z,15.60
2023-03-30T21:22:43.738Z,15.50
2023-03-30T21:25:12.696Z,15.80
2023-03-30T21:27:40.569Z,15.80
2023-03-30T21:30:10.678Z,15.70
2023-03-30T21:32:38.434Z,15.60
2023-03-30T21:35:08.076Z,15.60
2023-03-30T21:37:35.944Z,15.60
2023-03-30T21:40:03.758Z,15.60
2023-03-30T21:42:34.746Z,15.10
2023-03-30T21:45:02.503Z,15.10
2023-03-30T21:47:30.391Z,15.20
2023-03-30T21:49:58.159Z,15.50
2023-03-30T21:52:27.308Z,15.50
2023-03-30T21:54:55.012Z,15.40
2023-03-30T21:57:22.963Z,15.60
2023-03-30T21:59:50.720Z,15.60
2023-03-30T22:02:18.579Z,15.50
2023-03-30T22:04:46.320Z,15.60
2023-03-30T22:07:14.044Z,15.60
2023-03-30T22:09:43.113Z,15.70
2023-03-30T22:12:10.829Z,15.50
2023-03-30T22:14:38.505Z,15.50
2023-03-30T22:17:07.769Z,15.60
2023-03-30T22:19:35.576Z,15.60
2023-03-30T22:22:04.704Z,15.60
2023-03-30T22:24:32.413Z,15.70
2023-03-30T22:27:01.546Z,15.70
2023-03-30T22:29:31.178Z,15.80
2023-03-30T22:31:58.942Z,15.70
2023-03-30T22:34:27.109Z,15.50
2023-03-30T22:36:54.881Z,15.70
2023-03-30T22:39:23.485Z,15.70
2023-03-30T22:41:51.237Z,15.60
2023-03-30T22:44:21.354Z,15.70
2023-03-30T22:46:49.071Z,15.70
2023-03-30T22:49:17.633Z,15.50
2023-03-30T22:51:52.053Z,15.60
2023-03-30T22:54:22.475Z,15.70
2023-03-30T22:56:50.326Z,15.60
2023-03-30T22:59:18.075Z,15.80
2023-03-30T23:01:47.232Z,15.70
2023-03-30T23:04:14.957Z,15.90
2023-03-30T23:06:43.431Z,16.00
2023-03-30T23:09:13.566Z,15.90
2023-03-30T23:11:45.699Z,16.10
2023-03-30T23:14:13.968Z,15.80
2023-03-30T23:16:42.257Z,15.70
2023-03-30T23:19:12.661Z,15.70
2023-03-30T23:21:41.027Z,15.70
2023-03-30T23:24:11.730Z,14.80
2023-03-30T23:26:39.501Z,15.40
2023-03-30T23:29:07.283Z,15.40
2023-03-30T23:31:35.554Z,15.50
2023-03-30T23:34:03.420Z,15.50
2023-03-30T23:36:32.559Z,15.60
2023-03-30T23:39:00.290Z,15.50
2023-03-30T23:41:29.060Z,15.50
2023-03-30T23:43:56.778Z,15.60
2023-03-30T23:46:25.456Z,15.90
2023-03-30T23:48:53.219Z,15.70
2023-03-30T23:51:20.996Z,15.70
2023-03-30T23:53:54.365Z,15.80
2023-03-30T23:56:27.669Z,15.70
2023-03-30T23:58:55.399Z,15.80
